WZZ578 UGSB-UGTB
Flight info
| Callsign | WZZ578 |
|---|---|
| Flight time | N/A |
| Altitude | 25000 |
| Route | BARUS M747 LAGAS |
| Aircraft | A320/M-SDE3FGHIRWY/LB1 |
Departure
| Time | N/A |
|---|---|
| Airport | Alexander Kartveli Batumi International Airport (UGSB) |
Arrival
| Time | 2026-04-10 15:29 |
|---|---|
| Airport | Tbilisi International Airport (UGTB) |
| Time | Latitude | Longitude | Altitude | Speed | Heading |
|---|---|---|---|---|---|
| 2026-04-10 15:10 | 41.53630 | 44.50546 | 9444 ft | 303 kts | 103° |
| 2026-04-10 15:10 | 41.53287 | 44.53289 | 9230 ft | 297 kts | 104° |
| 2026-04-10 15:10 | 41.52930 | 44.55983 | 8961 ft | 293 kts | 104° |
| 2026-04-10 15:10 | 41.52569 | 44.58643 | 8682 ft | 290 kts | 104° |
| 2026-04-10 15:11 | 41.52211 | 44.61243 | 8410 ft | 287 kts | 104° |
| 2026-04-10 15:11 | 41.51853 | 44.63881 | 8137 ft | 284 kts | 103° |
| 2026-04-10 15:11 | 41.51510 | 44.66436 | 7858 ft | 281 kts | 103° |
| 2026-04-10 15:11 | 41.51168 | 44.68986 | 7576 ft | 278 kts | 102° |
| 2026-04-10 15:12 | 41.50831 | 44.71507 | 7310 ft | 274 kts | 102° |
| 2026-04-10 15:12 | 41.50498 | 44.73998 | 7091 ft | 271 kts | 102° |
| 2026-04-10 15:12 | 41.50167 | 44.76461 | 6997 ft | 269 kts | 102° |
| 2026-04-10 15:12 | 41.49834 | 44.78925 | 7013 ft | 270 kts | 102° |
| 2026-04-10 15:13 | 41.49503 | 44.81388 | 7016 ft | 270 kts | 102° |
| 2026-04-10 15:13 | 41.49171 | 44.83839 | 6839 ft | 267 kts | 102° |
| 2026-04-10 15:13 | 41.48839 | 44.86267 | 6573 ft | 264 kts | 102° |
| 2026-04-10 15:13 | 41.48519 | 44.88620 | 6495 ft | 251 kts | 102° |
| 2026-04-10 15:14 | 41.48219 | 44.90840 | 6502 ft | 236 kts | 102° |
| 2026-04-10 15:14 | 41.47935 | 44.92935 | 6501 ft | 224 kts | 102° |
| 2026-04-10 15:14 | 41.47659 | 44.94957 | 6506 ft | 220 kts | 103° |
| 2026-04-10 15:14 | 41.47555 | 44.96991 | 6506 ft | 222 kts | 86° |
| 2026-04-10 15:15 | 41.47971 | 44.98959 | 6508 ft | 227 kts | 67° |
| 2026-04-10 15:15 | 41.48917 | 45.00697 | 6505 ft | 232 kts | 46° |
| 2026-04-10 15:15 | 41.50258 | 45.01878 | 6507 ft | 238 kts | 25° |
| 2026-04-10 15:15 | 41.51884 | 45.02354 | 6510 ft | 243 kts | 3° |
| 2026-04-10 15:16 | 41.53556 | 45.01989 | 6508 ft | 246 kts | 341° |
| 2026-04-10 15:16 | 41.55148 | 45.01130 | 6508 ft | 247 kts | 339° |
| 2026-04-10 15:16 | 41.56740 | 45.00270 | 6511 ft | 247 kts | 339° |
| 2026-04-10 15:16 | 41.58333 | 44.99410 | 6509 ft | 247 kts | 339° |
| 2026-04-10 15:17 | 41.59925 | 44.98548 | 6510 ft | 247 kts | 339° |
| 2026-04-10 15:17 | 41.61519 | 44.97686 | 6510 ft | 247 kts | 339° |
| 2026-04-10 15:17 | 41.63115 | 44.96823 | 6510 ft | 247 kts | 339° |
| 2026-04-10 15:17 | 41.64708 | 44.95958 | 6511 ft | 247 kts | 339° |
| 2026-04-10 15:18 | 41.66305 | 44.95091 | 6507 ft | 248 kts | 339° |
| 2026-04-10 15:18 | 41.67963 | 44.94413 | 6376 ft | 249 kts | 0° |
| 2026-04-10 15:18 | 41.69580 | 44.94975 | 6029 ft | 239 kts | 39° |
| 2026-04-10 15:18 | 41.70603 | 44.96627 | 5719 ft | 229 kts | 72° |
| 2026-04-10 15:19 | 41.70781 | 44.98683 | 5404 ft | 223 kts | 102° |
| 2026-04-10 15:19 | 41.70121 | 45.00527 | 5086 ft | 223 kts | 132° |
| 2026-04-10 15:19 | 41.68815 | 45.01624 | 4745 ft | 226 kts | 163° |
| 2026-04-10 15:19 | 41.67249 | 45.01932 | 4508 ft | 229 kts | 171° |
| 2026-04-10 15:20 | 41.65663 | 45.02210 | 4509 ft | 231 kts | 171° |
| 2026-04-10 15:20 | 41.64073 | 45.02503 | 4511 ft | 231 kts | 171° |
| 2026-04-10 15:20 | 41.62479 | 45.02798 | 4503 ft | 231 kts | 171° |
| 2026-04-10 15:20 | 41.60884 | 45.03091 | 4510 ft | 231 kts | 171° |
| 2026-04-10 15:21 | 41.59290 | 45.03382 | 4514 ft | 231 kts | 171° |
| 2026-04-10 15:21 | 41.57700 | 45.03671 | 4508 ft | 231 kts | 171° |
| 2026-04-10 15:21 | 41.56108 | 45.03960 | 4506 ft | 231 kts | 171° |
| 2026-04-10 15:21 | 41.54513 | 45.04250 | 4504 ft | 231 kts | 171° |
| 2026-04-10 15:22 | 41.52923 | 45.04540 | 4512 ft | 231 kts | 171° |
| 2026-04-10 15:22 | 41.51336 | 45.04829 | 4506 ft | 230 kts | 171° |
| 2026-04-10 15:22 | 41.49751 | 45.05115 | 4507 ft | 230 kts | 171° |
| 2026-04-10 15:22 | 41.48167 | 45.05432 | 4505 ft | 230 kts | 164° |
| 2026-04-10 15:23 | 41.46776 | 45.06366 | 4502 ft | 218 kts | 139° |
| 2026-04-10 15:23 | 41.45834 | 45.07839 | 4501 ft | 202 kts | 118° |
| 2026-04-10 15:23 | 41.45379 | 45.09573 | 4505 ft | 198 kts | 98° |
| 2026-04-10 15:23 | 41.45408 | 45.11395 | 4502 ft | 198 kts | 78° |
| 2026-04-10 15:24 | 41.45914 | 45.13094 | 4504 ft | 199 kts | 58° |
| 2026-04-10 15:24 | 41.46833 | 45.14452 | 4502 ft | 202 kts | 39° |
| 2026-04-10 15:24 | 41.48077 | 45.15309 | 4505 ft | 204 kts | 18° |
| 2026-04-10 15:24 | 41.49493 | 45.15518 | 4507 ft | 207 kts | 356° |
| 2026-04-10 15:25 | 41.50886 | 45.15023 | 4502 ft | 209 kts | 334° |
| 2026-04-10 15:25 | 41.52061 | 45.13881 | 4507 ft | 211 kts | 317° |
| 2026-04-10 15:25 | 41.53109 | 45.12554 | 4409 ft | 203 kts | 317° |
| 2026-04-10 15:25 | 41.54110 | 45.11280 | 4147 ft | 197 kts | 317° |
| 2026-04-10 15:26 | 41.55093 | 45.10033 | 4007 ft | 195 kts | 317° |
| 2026-04-10 15:26 | 41.56074 | 45.08778 | 4007 ft | 196 kts | 317° |
| 2026-04-10 15:26 | 41.57061 | 45.07527 | 3938 ft | 195 kts | 317° |
| 2026-04-10 15:26 | 41.58038 | 45.06296 | 3652 ft | 191 kts | 317° |
| 2026-04-10 15:27 | 41.58985 | 45.05104 | 3496 ft | 184 kts | 317° |
| 2026-04-10 15:27 | 41.59904 | 45.03947 | 3244 ft | 179 kts | 317° |
| 2026-04-10 15:27 | 41.60501 | 45.03196 | 3082 ft | 178 kts | 317° |
| 2026-04-10 15:27 | 41.61393 | 45.02072 | 2818 ft | 173 kts | 316° |
| 2026-04-10 15:28 | 41.62256 | 45.00985 | 2535 ft | 168 kts | 316° |
| 2026-04-10 15:28 | 41.63100 | 44.99922 | 2297 ft | 166 kts | 317° |
| 2026-04-10 15:28 | 41.63924 | 44.98883 | 2098 ft | 159 kts | 317° |
| 2026-04-10 15:28 | 41.64704 | 44.97903 | 1877 ft | 151 kts | 317° |
| 2026-04-10 15:29 | 41.65397 | 44.97029 | 1737 ft | 146 kts | 316° |
| 2026-04-10 15:29 | 41.66117 | 44.96115 | 1539 ft | 135 kts | 317° |
| 2026-04-10 15:29 | 41.66716 | 44.95360 | 1525 ft | 94 kts | 314° |
| 2026-04-10 15:29 | 41.67039 | 44.94947 | 1522 ft | 41 kts | 319° |
| 2026-04-10 15:30 | 41.67234 | 44.94714 | 1522 ft | 36 kts | 316° |
| 2026-04-10 15:30 | 41.67391 | 44.94513 | 1524 ft | 23 kts | 316° |
| 2026-04-10 15:30 | 41.67523 | 44.94426 | 1522 ft | 19 kts | 28° |
| 2026-04-10 15:30 | 41.67548 | 44.94517 | 1522 ft | 10 kts | 73° |
| 2026-04-10 15:31 | 41.67572 | 44.94612 | 1525 ft | 12 kts | 71° |
| 2026-04-10 15:31 | 41.67602 | 44.94728 | 1525 ft | 15 kts | 70° |
| 2026-04-10 15:31 | 41.67636 | 44.94868 | 1523 ft | 17 kts | 73° |
| 2026-04-10 15:31 | 41.67659 | 44.95031 | 1519 ft | 16 kts | 112° |
| 2026-04-10 15:32 | 41.67583 | 44.95157 | 1526 ft | 19 kts | 133° |
| 2026-04-10 15:32 | 41.67492 | 44.95289 | 1521 ft | 17 kts | 131° |
| 2026-04-10 15:32 | 41.67409 | 44.95417 | 1518 ft | 19 kts | 131° |
| 2026-04-10 15:32 | 41.67317 | 44.95554 | 1518 ft | 21 kts | 133° |
| 2026-04-10 15:33 | 41.67218 | 44.95690 | 1522 ft | 18 kts | 135° |
| 2026-04-10 15:33 | 41.67141 | 44.95794 | 1523 ft | 15 kts | 135° |
| 2026-04-10 15:33 | 41.67073 | 44.95893 | 1525 ft | 11 kts | 126° |
| 2026-04-10 15:33 | 41.67038 | 44.95966 | 1522 ft | 9 kts | 131° |
| 2026-04-10 15:34 | 41.67015 | 44.96001 | 1519 ft | 1 kts | 131° |
| 2026-04-10 15:34 | 41.67003 | 44.96020 | 1521 ft | 4 kts | 127° |
| 2026-04-10 15:34 | 41.66975 | 44.96034 | 1525 ft | 5 kts | 191° |
| 2026-04-10 15:34 | 41.66944 | 44.96005 | 1523 ft | 6 kts | 220° |
| 2026-04-10 15:35 | 41.66927 | 44.95985 | 1522 ft | 2 kts | 222° |
| 2026-04-10 15:35 | 41.66922 | 44.95979 | 1525 ft | 0 kts | 222° |